createdAt,value
2022-09-20T00:02:56.889Z,1.53
2022-09-20T00:07:08.443Z,1.30
2022-09-20T00:11:23.246Z,1.67
2022-09-20T00:15:34.894Z,1.77
2022-09-20T00:19:46.444Z,1.47
2022-09-20T00:23:58.163Z,1.50
2022-09-20T00:28:10.770Z,1.50
2022-09-20T00:32:23.538Z,1.30
2022-09-20T00:36:35.017Z,1.40
2022-09-20T00:40:46.550Z,1.07
2022-09-20T00:45:24.552Z,1.53
2022-09-20T00:49:37.834Z,1.37
2022-09-20T00:53:51.594Z,1.50
2022-09-20T00:58:03.351Z,1.17
2022-09-20T01:02:19.701Z,1.27
2022-09-20T01:06:33.197Z,1.43
2022-09-20T01:10:44.984Z,1.00
2022-09-20T01:14:59.125Z,1.30
2022-09-20T01:19:21.632Z,1.23
2022-09-20T01:24:00.245Z,1.43
2022-09-20T01:28:11.899Z,1.60
2022-09-20T01:32:29.789Z,1.00
2022-09-20T01:36:51.365Z,1.20
2022-09-20T01:41:25.351Z,1.30
2022-09-20T01:45:45.085Z,1.20
2022-09-20T01:50:21.169Z,1.47
2022-09-20T01:55:14.657Z,1.10
2022-09-20T01:59:56.108Z,1.00
2022-09-20T02:04:16.683Z,1.47
2022-09-20T02:08:56.133Z,1.33
2022-09-20T02:13:21.047Z,1.07
2022-09-20T02:17:59.424Z,0.98
2022-09-20T02:22:25.087Z,1.17
2022-09-20T02:27:02.274Z,1.00
2022-09-20T02:31:51.493Z,1.10
2022-09-20T02:36:27.884Z,1.13
2022-09-20T02:40:47.244Z,1.13
2022-09-20T02:45:26.175Z,1.10
2022-09-20T02:49:58.161Z,1.43
2022-09-20T02:54:26.015Z,1.10
2022-09-20T02:58:59.327Z,0.90
2022-09-20T03:03:46.786Z,1.27
2022-09-20T03:08:35.947Z,1.20
2022-09-20T03:12:57.270Z,1.37
2022-09-20T03:17:36.551Z,1.17
2022-09-20T03:22:02.071Z,1.37
2022-09-20T03:26:28.739Z,1.43
2022-09-20T03:31:03.627Z,1.10
2022-09-20T03:35:48.298Z,1.10
2022-09-20T03:40:22.984Z,1.10
2022-09-20T03:45:04.018Z,1.20
2022-09-20T03:49:56.561Z,1.20
2022-09-20T03:54:33.124Z,1.17
2022-09-20T03:59:16.935Z,1.20
2022-09-20T04:03:57.580Z,1.70
2022-09-20T04:08:40.576Z,1.27
2022-09-20T04:13:29.430Z,1.40
2022-09-20T04:18:03.678Z,1.43
2022-09-20T04:22:16.229Z,1.93
2022-09-20T04:26:36.203Z,1.40
2022-09-20T04:30:49.672Z,1.40
2022-09-20T04:35:41.893Z,1.47
2022-09-20T04:40:15.099Z,1.30
2022-09-20T04:44:48.841Z,1.30
2022-09-20T04:49:41.660Z,1.50
2022-09-20T04:53:59.309Z,1.70
2022-09-20T04:58:38.982Z,1.80
2022-09-20T05:03:29.534Z,1.57
2022-09-20T05:08:12.264Z,1.43
2022-09-20T05:12:51.619Z,1.70
2022-09-20T05:17:15.795Z,1.90
2022-09-20T05:21:30.767Z,1.20
2022-09-20T05:26:09.295Z,1.73
2022-09-20T05:30:45.593Z,1.53
2022-09-20T05:35:15.492Z,1.80
2022-09-20T05:39:38.916Z,1.60
2022-09-20T05:43:53.261Z,1.67
2022-09-20T05:48:04.712Z,1.40
2022-09-20T05:52:46.882Z,1.30
2022-09-20T05:57:12.081Z,2.33
2022-09-20T06:01:32.690Z,1.87
2022-09-20T06:06:13.265Z,1.67
2022-09-20T06:10:31.091Z,1.80
2022-09-20T06:15:00.055Z,1.97
2022-09-20T06:19:42.506Z,1.50
2022-09-20T06:24:00.186Z,1.70
2022-09-20T06:28:20.986Z,1.23
2022-09-20T06:32:34.713Z,1.38
2022-09-20T06:37:12.737Z,1.20
2022-09-20T06:41:30.547Z,1.20
2022-09-20T06:45:42.872Z,1.25
2022-09-20T06:49:55.329Z,1.25
2022-09-20T06:54:11.381Z,1.35
2022-09-20T06:58:22.930Z,1.50
2022-09-20T07:02:34.493Z,1.40
2022-09-20T07:06:46.073Z,1.48
2022-09-20T07:10:57.752Z,1.58
2022-09-20T07:15:09.877Z,1.58
2022-09-20T07:19:23.369Z,1.30
2022-09-20T07:23:34.955Z,1.52
2022-09-20T07:27:49.737Z,1.55
2022-09-20T07:32:01.541Z,1.63
2022-09-20T07:36:13.257Z,1.40
2022-09-20T07:40:26.505Z,1.75
2022-09-20T07:44:42.253Z,1.63
2022-09-20T07:48:53.791Z,1.70
2022-09-20T07:53:05.347Z,1.73
2022-09-20T07:57:17.040Z,1.65
2022-09-20T08:01:28.775Z,1.40
2022-09-20T08:05:40.958Z,2.03
2022-09-20T08:09:52.522Z,1.30
2022-09-20T08:14:06.257Z,1.52
2022-09-20T08:18:18.420Z,1.20
2022-09-20T08:22:32.092Z,1.50
2022-09-20T08:26:44.107Z,1.25
2022-09-20T08:31:05.888Z,1.20
2022-09-20T08:35:17.620Z,1.02
2022-09-20T08:44:03.461Z,1.00
2022-09-20T08:48:17.344Z,1.05
2022-09-20T08:52:36.938Z,1.05
2022-09-20T08:56:51.028Z,0.65
2022-09-20T09:01:03.514Z,0.68
2022-09-20T09:05:34.440Z,0.85
2022-09-20T09:09:47.357Z,0.80
2022-09-20T09:14:31.838Z,1.33
2022-09-20T09:18:45.732Z,1.10
2022-09-20T09:23:09.099Z,0.75
2022-09-20T09:27:21.391Z,0.80
2022-09-20T09:31:33.600Z,1.20
2022-09-20T09:35:53.228Z,1.23
2022-09-20T09:40:16.540Z,0.82
2022-09-20T09:44:35.503Z,0.90
2022-09-20T09:48:50.140Z,1.27
2022-09-20T09:53:09.667Z,0.95
2022-09-20T09:57:32.981Z,0.85
2022-09-20T10:02:23.329Z,1.00
2022-09-20T10:06:52.375Z,0.70
2022-09-20T10:11:28.527Z,1.20
2022-09-20T10:15:52.118Z,0.90
2022-09-20T10:20:31.212Z,0.80
2022-09-20T10:25:11.579Z,0.82
2022-09-20T10:29:42.525Z,0.95
2022-09-20T10:34:12.779Z,0.77
2022-09-20T10:38:35.845Z,0.50
2022-09-20T10:43:09.732Z,0.63
2022-09-20T10:47:31.468Z,0.57
2022-09-20T10:52:09.253Z,0.77
2022-09-20T10:56:37.521Z,0.85
2022-09-20T11:00:52.711Z,0.68
2022-09-20T11:05:43.428Z,1.02
2022-09-20T11:10:06.275Z,0.75
2022-09-20T11:14:33.437Z,1.05
2022-09-20T11:18:59.251Z,1.30
2022-09-20T11:23:20.984Z,1.17
2022-09-20T11:27:51.712Z,0.85
2022-09-20T11:32:36.618Z,0.93
2022-09-20T11:36:57.575Z,1.00
2022-09-20T11:41:12.196Z,0.77
2022-09-20T11:45:28.309Z,1.00
2022-09-20T11:49:40.092Z,0.85
2022-09-20T11:54:38.094Z,0.90
2022-09-20T11:58:52.027Z,1.02
2022-09-20T12:03:07.970Z,0.88
2022-09-20T12:07:24.977Z,0.70
2022-09-20T12:11:39.216Z,0.88
2022-09-20T12:16:00.473Z,1.17
2022-09-20T12:20:42.315Z,0.93
2022-09-20T12:25:35.855Z,0.88
2022-09-20T12:29:50.721Z,0.85
2022-09-20T12:34:11.743Z,0.90
2022-09-20T12:38:30.363Z,0.82
2022-09-20T12:42:41.951Z,0.70
2022-09-20T12:47:00.757Z,0.85
2022-09-20T12:51:34.140Z,0.95
2022-09-20T12:56:16.138Z,1.00
2022-09-20T13:01:02.061Z,0.85
2022-09-20T13:05:36.190Z,0.70
2022-09-20T13:09:48.310Z,0.57
2022-09-20T13:14:11.952Z,0.88
2022-09-20T13:18:26.168Z,1.00
2022-09-20T13:22:45.355Z,1.00
2022-09-20T13:27:19.342Z,0.73
2022-09-20T13:31:33.725Z,0.90
2022-09-20T13:35:49.887Z,0.82
2022-09-20T13:40:02.663Z,0.80
2022-09-20T13:44:16.928Z,0.70
2022-09-20T13:48:30.218Z,0.88
2022-09-20T13:52:47.114Z,1.13
2022-09-20T13:57:05.055Z,1.30
2022-09-20T14:01:36.778Z,0.88
2022-09-20T14:06:11.813Z,0.82
2022-09-20T14:10:31.626Z,0.90
2022-09-20T14:14:43.895Z,0.70
2022-09-20T14:18:57.808Z,0.80
2022-09-20T14:23:27.537Z,1.13
2022-09-20T14:27:39.288Z,0.73
2022-09-20T14:31:50.850Z,1.25
2022-09-20T14:36:02.366Z,0.80
2022-09-20T14:40:31.996Z,0.77
2022-09-20T14:44:49.687Z,0.52
2022-09-20T14:49:20.336Z,0.88
2022-09-20T14:53:32.581Z,0.80
2022-09-20T14:57:46.113Z,0.63
2022-09-20T15:02:11.439Z,0.70
2022-09-20T15:06:23.453Z,0.85
2022-09-20T15:10:35.060Z,0.80
2022-09-20T15:14:48.238Z,1.05
2022-09-20T15:18:59.857Z,1.20
2022-09-20T15:23:11.404Z,0.80
2022-09-20T15:27:27.543Z,0.95
2022-09-20T15:31:40.300Z,0.70
2022-09-20T15:35:51.880Z,1.10
2022-09-20T15:40:05.617Z,1.75
2022-09-20T15:44:17.356Z,1.15
2022-09-20T15:48:30.682Z,1.05
2022-09-20T15:52:42.451Z,0.60
2022-09-20T15:56:54.100Z,1.00
2022-09-20T16:01:08.041Z,0.88
2022-09-20T16:05:19.867Z,1.00
2022-09-20T16:09:31.470Z,1.17
2022-09-20T16:13:43.069Z,0.93
2022-09-20T16:18:13.382Z,1.00
2022-09-20T16:22:25.033Z,1.10
2022-09-20T16:26:37.652Z,0.70
2022-09-20T16:30:59.503Z,0.68
2022-09-20T16:35:11.247Z,0.70
2022-09-20T16:39:28.812Z,1.10
2022-09-20T16:43:41.277Z,0.98
2022-09-20T16:47:58.063Z,0.93
2022-09-20T16:52:11.016Z,0.93
2022-09-20T16:56:29.567Z,0.60
2022-09-20T17:00:41.195Z,0.63
2022-09-20T17:04:52.829Z,0.95
2022-09-20T17:09:06.210Z,0.70
2022-09-20T17:13:18.171Z,1.00
2022-09-20T17:17:29.719Z,0.90
2022-09-20T17:21:45.172Z,0.68
2022-09-20T17:26:08.017Z,0.70
2022-09-20T17:30:19.680Z,1.10
2022-09-20T17:34:31.694Z,0.80
2022-09-20T17:38:43.311Z,0.95
2022-09-20T17:42:55.296Z,0.75
2022-09-20T17:47:07.354Z,1.10
2022-09-20T17:51:19.977Z,1.48
2022-09-20T17:55:31.606Z,1.30
2022-09-20T17:59:43.269Z,1.35
2022-09-20T18:03:56.682Z,2.38
2022-09-20T18:08:08.493Z,2.88
2022-09-20T18:12:21.564Z,3.88
2022-09-20T18:16:35.175Z,4.18
2022-09-20T18:20:47.320Z,4.25
2022-09-20T18:24:58.954Z,3.03
2022-09-20T18:29:17.889Z,2.42
2022-09-20T18:33:32.499Z,1.60
2022-09-20T18:37:45.654Z,1.80
2022-09-20T18:41:57.356Z,1.80
2022-09-20T18:46:11.602Z,2.35
2022-09-20T18:50:26.475Z,3.35
2022-09-20T18:54:39.078Z,4.75
2022-09-20T18:58:53.771Z,5.40
2022-09-20T19:03:17.882Z,4.18
2022-09-20T19:07:36.238Z,2.42
2022-09-20T19:12:00.737Z,2.38
2022-09-20T19:16:21.057Z,1.42
2022-09-20T19:20:51.719Z,1.48
2022-09-20T19:25:18.617Z,0.90
2022-09-20T19:29:30.766Z,0.98
2022-09-20T19:33:42.524Z,1.52
2022-09-20T19:38:15.506Z,1.37
2022-09-20T19:42:47.605Z,2.08
2022-09-20T19:47:11.266Z,2.22
2022-09-20T19:51:23.601Z,4.47
2022-09-20T19:55:35.490Z,5.93
2022-09-20T19:59:47.938Z,3.63
2022-09-20T20:03:59.754Z,2.17
2022-09-20T20:08:16.300Z,3.73
2022-09-20T20:12:52.847Z,9.37
2022-09-20T20:17:29.296Z,10.48
2022-09-20T20:21:46.979Z,11.03
2022-09-20T20:26:25.422Z,10.77
2022-09-20T20:30:39.542Z,8.13
2022-09-20T20:34:51.107Z,6.60
2022-09-20T20:39:02.728Z,6.27
2022-09-20T20:43:14.266Z,5.37
2022-09-20T20:47:25.796Z,7.17
2022-09-20T20:51:37.492Z,6.40
2022-09-20T20:55:49.018Z,6.47
2022-09-20T21:00:00.790Z,5.05
2022-09-20T21:04:15.212Z,4.60
2022-09-20T21:08:49.632Z,3.42
2022-09-20T21:13:01.501Z,3.17
2022-09-20T21:17:13.011Z,3.57
2022-09-20T21:21:26.723Z,4.17
2022-09-20T21:25:38.280Z,2.42
2022-09-20T21:29:49.865Z,2.53
2022-09-20T21:34:01.969Z,1.60
2022-09-20T21:38:13.522Z,1.55
2022-09-20T21:42:27.184Z,1.40
2022-09-20T21:46:40.800Z,1.50
2022-09-20T21:50:53.126Z,1.97
2022-09-20T21:55:06.986Z,1.20
2022-09-20T21:59:20.367Z,1.15
2022-09-20T22:03:34.204Z,1.52
2022-09-20T22:07:46.060Z,1.00
2022-09-20T22:11:57.758Z,0.70
2022-09-20T22:16:12.674Z,0.93
2022-09-20T22:20:24.782Z,0.98
2022-09-20T22:24:36.565Z,1.10
2022-09-20T22:28:51.940Z,0.70
2022-09-20T22:33:03.728Z,0.87
2022-09-20T22:37:16.467Z,1.40
2022-09-20T22:41:28.404Z,0.80
2022-09-20T22:45:40.082Z,1.03
2022-09-20T22:49:51.791Z,0.88
2022-09-20T22:54:11.899Z,0.80
2022-09-20T22:58:23.551Z,1.00
2022-09-20T23:02:35.256Z,0.77
2022-09-20T23:06:51.889Z,1.03
2022-09-20T23:11:05.280Z,1.23
2022-09-20T23:15:17.371Z,1.20
2022-09-20T23:19:29.073Z,1.20
2022-09-20T23:23:44.152Z,1.47
2022-09-20T23:27:55.787Z,1.70
2022-09-20T23:32:08.027Z,1.30
2022-09-20T23:36:20.669Z,1.10
2022-09-20T23:40:33.801Z,1.00
2022-09-20T23:44:45.560Z,1.40
2022-09-20T23:48:57.286Z,2.03
2022-09-20T23:53:08.972Z,1.10
2022-09-20T23:57:20.617Z,1.17
